Time,TemperatureF,DewpointF,PressureIn,WindDirection,WindDirectionDegrees,WindSpeedMPH,WindSpeedGustMPH,Humidity,HourlyPrecipIn,Conditions,Clouds,dailyrainin,SoftwareType,DateUTC
2013-01-20 00:05:00,43.6,27.1,29.79,South,188,4.0,5.0,52,0.00,,,0.00,Wunderground v.1.15,2013-01-20 05:05:00,
2013-01-20 00:15:00,43.3,27.3,29.79,SSW,202,3.0,8.0,53,0.00,,,0.00,Wunderground v.1.15,2013-01-20 05:15:00,
2013-01-20 00:25:00,43.3,27.3,29.79,SE,144,4.0,5.0,53,0.00,,,0.00,Wunderground v.1.15,2013-01-20 05:25:00,
2013-01-20 00:30:00,43.3,27.8,29.79,WSW,242,5.0,5.0,54,0.00,,,0.00,Wunderground v.1.15,2013-01-20 05:30:00,
2013-01-20 00:40:00,43.2,28.1,29.79,SSW,204,4.0,4.0,55,0.00,,,0.00,Wunderground v.1.15,2013-01-20 05:40:00,
2013-01-20 00:45:00,43.1,28.0,29.79,NE,52,3.0,5.0,55,0.00,,,0.00,Wunderground v.1.15,2013-01-20 05:45:00,
2013-01-20 00:55:00,43.2,28.1,29.79,SW,232,4.0,4.0,55,0.00,,,0.00,Wunderground v.1.15,2013-01-20 05:55:00,
2013-01-20 01:00:00,43.1,28.0,29.79,South,174,4.0,4.0,55,0.00,,,0.00,Wunderground v.1.15,2013-01-20 06:00:00,
2013-01-20 01:10:00,42.9,27.8,29.78,SSE,168,3.0,9.0,55,0.00,,,0.00,Wunderground v.1.15,2013-01-20 06:10:00,
2013-01-20 01:15:00,42.9,28.3,29.78,SSW,193,3.0,9.0,56,0.00,,,0.00,Wunderground v.1.15,2013-01-20 06:15:00,
2013-01-20 01:25:00,43.1,28.5,29.78,NNW,341,4.0,5.0,56,0.00,,,0.00,Wunderground v.1.15,2013-01-20 06:25:00,
2013-01-20 01:30:00,42.9,28.3,29.78,West,269,4.0,4.0,56,0.00,,,0.00,Wunderground v.1.15,2013-01-20 06:30:00,
2013-01-20 01:40:00,42.9,28.7,29.78,WSW,252,4.0,6.0,57,0.00,,,0.00,Wunderground v.1.15,2013-01-20 06:40:00,
2013-01-20 01:45:00,42.8,28.6,29.78,NNW,348,4.0,6.0,57,0.00,,,0.00,Wunderground v.1.15,2013-01-20 06:45:00,
2013-01-20 01:55:00,42.8,28.6,29.78,SSW,192,3.0,9.0,57,0.00,,,0.00,Wunderground v.1.15,2013-01-20 06:55:00,
2013-01-20 02:00:00,42.8,29.0,29.78,ENE,76,4.0,4.0,58,0.00,,,0.00,Wunderground v.1.15,2013-01-20 07:00:00,
2013-01-20 02:10:00,42.6,28.8,29.78,ESE,105,3.0,3.0,58,0.00,,,0.00,Wunderground v.1.15,2013-01-20 07:10:00,
2013-01-20 02:15:00,42.6,28.8,29.78,SE,144,4.0,5.0,58,0.00,,,0.00,Wunderground v.1.15,2013-01-20 07:15:00,
2013-01-20 02:25:00,42.6,28.8,29.77,SE,139,4.0,6.0,58,0.00,,,0.00,Wunderground v.1.15,2013-01-20 07:25:00,
2013-01-20 02:30:00,42.6,29.3,29.77,SW,226,4.0,4.0,59,0.00,,,0.00,Wunderground v.1.15,2013-01-20 07:30:00,
2013-01-20 02:40:00,42.6,29.3,29.78,West,272,4.0,4.0,59,0.00,,,0.00,Wunderground v.1.15,2013-01-20 07:40:00,
2013-01-20 02:45:00,42.5,29.2,29.78,NNE,21,3.0,4.0,59,0.00,,,0.00,Wunderground v.1.15,2013-01-20 07:45:00,
2013-01-20 02:55:00,42.5,29.2,29.79,SW,225,3.0,4.0,59,0.00,,,0.00,Wunderground v.1.15,2013-01-20 07:55:00,
2013-01-20 03:00:00,42.5,29.6,29.79,West,270,4.0,4.0,60,0.00,,,0.00,Wunderground v.1.15,2013-01-20 08:00:00,
2013-01-20 03:05:00,42.5,29.6,29.79,SW,221,4.0,5.0,60,0.00,,,0.00,Wunderground v.1.15,2013-01-20 08:05:00,
2013-01-20 03:15:00,42.2,29.7,29.79,WSW,240,3.0,4.0,61,0.00,,,0.00,Wunderground v.1.15,2013-01-20 08:15:00,
2013-01-20 03:25:00,41.9,29.8,29.79,SSE,154,3.0,4.0,62,0.00,,,0.00,Wunderground v.1.15,2013-01-20 08:25:00,
2013-01-20 03:30:00,41.8,29.7,29.79,SSW,205,2.0,4.0,62,0.00,,,0.00,Wunderground v.1.15,2013-01-20 08:30:00,
2013-01-20 03:40:00,41.6,29.9,29.81,South,174,1.0,5.0,63,0.00,,,0.00,Wunderground v.1.15,2013-01-20 08:40:00,
2013-01-20 03:45:00,41.8,30.1,29.81,SSW,198,2.0,5.0,63,0.00,,,0.00,Wunderground v.1.15,2013-01-20 08:45:00,
2013-01-20 03:55:00,41.9,30.6,29.81,West,269,3.0,8.0,64,0.00,,,0.00,Wunderground v.1.15,2013-01-20 08:55:00,
2013-01-20 04:00:00,42.3,30.6,29.81,WNW,282,4.0,4.0,63,0.00,,,0.00,Wunderground v.1.15,2013-01-20 09:00:00,
2013-01-20 04:05:00,42.6,30.9,29.81,South,182,4.0,6.0,63,0.00,,,0.00,Wunderground v.1.15,2013-01-20 09:05:00,
2013-01-20 04:15:00,42.5,30.8,29.81,NNE,15,3.0,6.0,63,0.00,,,0.00,Wunderground v.1.15,2013-01-20 09:15:00,
2013-01-20 04:25:00,42.3,29.0,29.82,SW,228,5.0,12.0,59,0.00,,,0.00,Wunderground v.1.15,2013-01-20 09:25:00,
2013-01-20 04:30:00,42.2,28.5,29.82,West,260,6.0,6.0,58,0.00,,,0.00,Wunderground v.1.15,2013-01-20 09:30:00,
2013-01-20 04:40:00,41.8,28.5,29.82,West,272,4.0,4.0,59,0.00,,,0.00,Wunderground v.1.15,2013-01-20 09:40:00,
2013-01-20 04:45:00,41.5,29.0,29.82,WSW,247,4.0,7.0,61,0.00,,,0.00,Wunderground v.1.15,2013-01-20 09:45:00,
2013-01-20 04:55:00,40.9,29.3,29.82,North,355,3.0,5.0,63,0.00,,,0.00,Wunderground v.1.15,2013-01-20 09:55:00,
2013-01-20 05:00:00,40.5,29.3,29.82,West,275,3.0,6.0,64,0.00,,,0.00,Wunderground v.1.15,2013-01-20 10:00:00,
2013-01-20 05:10:00,40.2,29.0,29.83,West,271,2.0,2.0,64,0.00,,,0.00,Wunderground v.1.15,2013-01-20 10:10:00,
2013-01-20 05:15:00,40.1,29.6,29.83,SW,233,2.0,2.0,66,0.00,,,0.00,Wunderground v.1.15,2013-01-20 10:15:00,
2013-01-20 05:25:00,39.3,27.0,29.83,WNW,288,2.0,5.0,61,0.00,,,0.00,Wunderground v.1.15,2013-01-20 10:25:00,
2013-01-20 05:30:00,39.1,24.7,29.83,NNW,342,3.0,4.0,56,0.00,,,0.00,Wunderground v.1.15,2013-01-20 10:30:00,
2013-01-20 05:40:00,38.8,24.0,29.84,NW,325,4.0,4.0,55,0.00,,,0.00,Wunderground v.1.15,2013-01-20 10:40:00,
2013-01-20 05:45:00,38.6,23.4,29.84,West,273,4.0,4.0,54,0.00,,,0.00,Wunderground v.1.15,2013-01-20 10:45:00,
2013-01-20 05:55:00,38.0,23.3,29.84,WSW,238,3.0,6.0,55,0.00,,,0.00,Wunderground v.1.15,2013-01-20 10:55:00,
2013-01-20 06:00:00,37.8,23.1,29.84,West,264,5.0,5.0,55,0.00,,,0.00,Wunderground v.1.15,2013-01-20 11:00:00,
2013-01-20 06:10:00,37.0,21.4,29.86,WSW,240,3.0,4.0,53,0.00,,,0.00,Wunderground v.1.15,2013-01-20 11:10:00,
2013-01-20 06:15:00,36.6,18.7,29.86,WSW,255,4.0,5.0,48,0.00,,,0.00,Wunderground v.1.15,2013-01-20 11:15:00,
2013-01-20 06:25:00,35.8,15.5,29.87,West,266,3.0,6.0,43,0.00,,,0.00,Wunderground v.1.15,2013-01-20 11:25:00,
2013-01-20 06:30:00,35.2,14.4,29.87,WSW,244,3.0,3.0,42,0.00,,,0.00,Wunderground v.1.15,2013-01-20 11:30:00,
2013-01-20 06:40:00,34.4,13.6,29.89,West,270,3.0,3.0,42,0.00,,,0.00,Wunderground v.1.15,2013-01-20 11:40:00,
2013-01-20 06:45:00,34.0,13.8,29.89,NNW,333,2.0,3.0,43,0.00,,,0.00,Wunderground v.1.15,2013-01-20 11:45:00,
2013-01-20 06:55:00,33.4,13.3,29.90,West,274,2.0,4.0,43,0.00,,,0.00,Wunderground v.1.15,2013-01-20 11:55:00,
2013-01-20 07:00:00,33.1,14.0,29.90,North,360,2.0,2.0,45,0.00,,,0.00,Wunderground v.1.15,2013-01-20 12:00:00,
2013-01-20 07:05:00,32.8,14.3,29.92,West,281,2.0,3.0,46,0.00,,,0.00,Wunderground v.1.15,2013-01-20 12:05:00,
2013-01-20 07:15:00,32.2,11.6,29.92,WSW,255,3.0,3.0,42,0.00,,,0.00,Wunderground v.1.15,2013-01-20 12:15:00,
2013-01-20 07:25:00,31.5,11.0,29.93,West,269,3.0,3.0,42,0.00,,,0.00,Wunderground v.1.15,2013-01-20 12:25:00,
2013-01-20 07:30:00,31.0,11.6,29.93,SW,235,2.0,2.0,44,0.00,,,0.00,Wunderground v.1.15,2013-01-20 12:30:00,
2013-01-20 07:40:00,30.4,11.6,29.95,West,265,1.0,1.0,45,0.00,,,0.00,Wunderground v.1.15,2013-01-20 12:40:00,
2013-01-20 07:45:00,30.3,12.0,29.95,SSW,210,2.0,3.0,46,0.00,,,0.00,Wunderground v.1.15,2013-01-20 12:45:00,
2013-01-20 07:55:00,29.8,12.0,29.95,WSW,246,2.0,5.0,47,0.00,,,0.00,Wunderground v.1.15,2013-01-20 12:55:00,
2013-01-20 08:00:00,29.4,11.6,29.95,WNW,288,3.0,6.0,47,0.00,,,0.00,Wunderground v.1.15,2013-01-20 13:00:00,
2013-01-20 08:10:00,28.7,11.9,29.97,WSW,253,3.0,3.0,49,0.00,,,0.00,Wunderground v.1.15,2013-01-20 13:10:00,
2013-01-20 08:15:00,28.5,12.2,29.97,East,85,3.0,3.0,50,0.00,,,0.00,Wunderground v.1.15,2013-01-20 13:15:00,
2013-01-20 08:25:00,28.2,13.2,29.98,WSW,240,2.0,2.0,53,0.00,,,0.00,Wunderground v.1.15,2013-01-20 13:25:00,
2013-01-20 08:30:00,28.1,13.6,29.98,West,263,2.0,4.0,54,0.00,,,0.00,Wunderground v.1.15,2013-01-20 13:30:00,
2013-01-20 08:40:00,27.9,14.2,30.00,SSW,209,1.0,1.0,56,0.00,,,0.00,Wunderground v.1.15,2013-01-20 13:40:00,
2013-01-20 08:45:00,27.9,13.8,30.00,West,269,1.0,3.0,55,0.00,,,0.00,Wunderground v.1.15,2013-01-20 13:45:00,
2013-01-20 08:55:00,27.9,13.8,30.01,WSW,251,2.0,2.0,55,0.00,,,0.00,Wunderground v.1.15,2013-01-20 13:55:00,
2013-01-20 09:00:00,27.9,13.8,30.01,West,277,3.0,3.0,55,0.00,,,0.00,Wunderground v.1.15,2013-01-20 14:00:00,
2013-01-20 09:10:00,27.8,13.3,30.02,NW,313,2.0,2.0,54,0.00,,,0.00,Wunderground v.1.15,2013-01-20 14:10:00,
2013-01-20 09:15:00,27.6,13.5,30.02,WSW,248,3.0,3.0,55,0.00,,,0.00,Wunderground v.1.15,2013-01-20 14:15:00,
2013-01-20 09:25:00,27.8,13.7,30.03,West,274,2.0,5.0,55,0.00,,,0.00,Wunderground v.1.15,2013-01-20 14:25:00,
2013-01-20 09:30:00,27.9,13.8,30.03,WSW,254,2.0,2.0,55,0.00,,,0.00,Wunderground v.1.15,2013-01-20 14:30:00,
2013-01-20 09:40:00,28.4,13.4,30.05,WSW,258,2.0,2.0,53,0.00,,,0.00,Wunderground v.1.15,2013-01-20 14:40:00,
2013-01-20 09:45:00,28.5,13.9,30.05,WSW,250,2.0,4.0,54,0.00,,,0.00,Wunderground v.1.15,2013-01-20 14:45:00,
2013-01-20 09:55:00,28.7,14.6,30.05,NNW,334,1.0,2.0,55,0.00,,,0.00,Wunderground v.1.15,2013-01-20 14:55:00,
2013-01-20 10:00:00,28.7,13.7,30.05,North,5,1.0,1.0,53,0.00,,,0.00,Wunderground v.1.15,2013-01-20 15:00:00,
2013-01-20 10:05:00,28.5,13.9,30.06,NW,307,1.0,1.0,54,0.00,,,0.00,Wunderground v.1.15,2013-01-20 15:05:00,
2013-01-20 10:15:00,28.4,13.4,30.06,West,267,1.0,1.0,53,0.00,,,0.00,Wunderground v.1.15,2013-01-20 15:15:00,
2013-01-20 10:25:00,28.7,12.8,30.07,WSW,239,2.0,4.0,51,0.00,,,0.00,Wunderground v.1.15,2013-01-20 15:25:00,
2013-01-20 10:30:00,28.7,13.7,30.07,ENE,78,2.0,2.0,53,0.00,,,0.00,Wunderground v.1.15,2013-01-20 15:30:00,
2013-01-20 10:40:00,29.0,14.0,30.08,West,265,1.0,2.0,53,0.00,,,0.00,Wunderground v.1.15,2013-01-20 15:40:00,
2013-01-20 10:45:00,29.0,13.1,30.08,North,360,2.0,2.0,51,0.00,,,0.00,Wunderground v.1.15,2013-01-20 15:45:00,
2013-01-20 10:55:00,28.2,12.4,30.10,NNE,18,2.0,2.0,51,0.00,,,0.00,Wunderground v.1.15,2013-01-20 15:55:00,
2013-01-20 11:00:00,28.4,12.6,30.10,South,189,2.0,3.0,51,0.00,,,0.00,Wunderground v.1.15,2013-01-20 16:00:00,
2013-01-20 11:10:00,28.4,13.0,30.10,West,281,3.0,3.0,52,0.00,,,0.00,Wunderground v.1.15,2013-01-20 16:10:00,
2013-01-20 11:15:00,28.7,13.3,30.10,North,11,2.0,3.0,52,0.00,,,0.00,Wunderground v.1.15,2013-01-20 16:15:00,
2013-01-20 11:25:00,29.0,13.6,30.10,WSW,238,2.0,3.0,52,0.00,,,0.00,Wunderground v.1.15,2013-01-20 16:25:00,
2013-01-20 11:30:00,29.1,13.2,30.10,South,169,1.0,1.0,51,0.00,,,0.00,Wunderground v.1.15,2013-01-20 16:30:00,
2013-01-20 11:40:00,28.8,13.4,30.10,West,276,2.0,5.0,52,0.00,,,0.00,Wunderground v.1.15,2013-01-20 16:40:00,
2013-01-20 11:45:00,28.5,12.6,30.10,West,263,2.0,5.0,51,0.00,,,0.00,Wunderground v.1.15,2013-01-20 16:45:00,
2013-01-20 11:55:00,28.2,11.9,30.11,West,268,2.0,5.0,50,0.00,,,0.00,Wunderground v.1.15,2013-01-20 16:55:00,
2013-01-20 12:00:00,28.7,13.3,30.11,SW,234,2.0,2.0,52,0.00,,,0.00,Wunderground v.1.15,2013-01-20 17:00:00,
2013-01-20 12:10:00,29.4,13.5,30.10,West,279,1.0,1.0,51,0.00,,,0.00,Wunderground v.1.15,2013-01-20 17:10:00,
2013-01-20 12:15:00,29.4,12.1,30.10,WSW,246,2.0,2.0,48,0.00,,,0.00,Wunderground v.1.15,2013-01-20 17:15:00,
2013-01-20 12:25:00,29.8,12.5,30.10,South,185,2.0,5.0,48,0.00,,,0.00,Wunderground v.1.15,2013-01-20 17:25:00,
2013-01-20 12:30:00,29.4,12.1,30.10,WNW,300,2.0,2.0,48,0.00,,,0.00,Wunderground v.1.15,2013-01-20 17:30:00,
2013-01-20 12:40:00,30.3,12.5,30.10,West,275,1.0,1.0,47,0.00,,,0.00,Wunderground v.1.15,2013-01-20 17:40:00,
2013-01-20 12:45:00,30.3,12.5,30.10,West,271,2.0,2.0,47,0.00,,,0.00,Wunderground v.1.15,2013-01-20 17:45:00,
2013-01-20 12:55:00,30.7,13.3,30.09,WSW,256,1.0,2.0,48,0.00,,,0.00,Wunderground v.1.15,2013-01-20 17:55:00,
2013-01-20 13:00:00,31.6,14.1,30.09,West,273,1.0,2.0,48,0.00,,,0.00,Wunderground v.1.15,2013-01-20 18:00:00,
2013-01-20 13:10:00,31.2,12.8,30.09,SW,229,2.0,2.0,46,0.00,,,0.00,Wunderground v.1.15,2013-01-20 18:10:00,
2013-01-20 13:15:00,30.3,13.9,30.09,SW,236,2.0,3.0,50,0.00,,,0.00,Wunderground v.1.15,2013-01-20 18:15:00,
2013-01-20 13:25:00,29.8,13.9,30.09,SE,131,2.0,2.0,51,0.00,,,0.00,Wunderground v.1.15,2013-01-20 18:25:00,
2013-01-20 13:30:00,30.0,12.7,30.09,NE,51,2.0,2.0,48,0.00,,,0.00,Wunderground v.1.15,2013-01-20 18:30:00,
2013-01-20 13:40:00,30.0,13.1,30.09,West,270,2.0,2.0,49,0.00,,,0.00,Wunderground v.1.15,2013-01-20 18:40:00,
2013-01-20 13:45:00,30.1,12.3,30.09,WSW,257,1.0,2.0,47,0.00,,,0.00,Wunderground v.1.15,2013-01-20 18:45:00,
2013-01-20 13:55:00,30.1,13.2,30.08,SW,218,2.0,2.0,49,0.00,,,0.00,Wunderground v.1.15,2013-01-20 18:55:00,
2013-01-20 14:00:00,30.0,12.7,30.08,West,280,1.0,1.0,48,0.00,,,0.00,Wunderground v.1.15,2013-01-20 19:00:00,
2013-01-20 14:05:00,29.7,12.8,30.07,WSW,250,2.0,2.0,49,0.00,,,0.00,Wunderground v.1.15,2013-01-20 19:05:00,
2013-01-20 14:15:00,29.4,13.0,30.07,North,355,1.0,2.0,50,0.00,,,0.00,Wunderground v.1.15,2013-01-20 19:15:00,
2013-01-20 14:25:00,29.3,13.4,30.08,ENE,59,1.0,3.0,51,0.00,,,0.00,Wunderground v.1.15,2013-01-20 19:25:00,
2013-01-20 14:30:00,29.7,12.8,30.08,WSW,258,0.0,1.0,49,0.00,,,0.00,Wunderground v.1.15,2013-01-20 19:30:00,
2013-01-20 14:40:00,30.0,13.1,30.08,SW,215,1.0,4.0,49,0.00,,,0.00,Wunderground v.1.15,2013-01-20 19:40:00,
2013-01-20 14:45:00,30.0,12.7,30.08,SSW,205,1.0,4.0,48,0.00,,,0.00,Wunderground v.1.15,2013-01-20 19:45:00,
2013-01-20 14:55:00,30.0,12.2,30.07,WSW,244,1.0,1.0,47,0.00,,,0.00,Wunderground v.1.15,2013-01-20 19:55:00,
2013-01-20 15:00:00,29.5,12.2,30.07,West,259,2.0,2.0,48,0.00,,,0.00,Wunderground v.1.15,2013-01-20 20:00:00,
2013-01-20 15:10:00,29.7,12.8,30.09,West,264,1.0,3.0,49,0.00,,,0.00,Wunderground v.1.15,2013-01-20 20:10:00,
2013-01-20 15:15:00,29.7,12.8,30.09,West,266,1.0,3.0,49,0.00,,,0.00,Wunderground v.1.15,2013-01-20 20:15:00,
2013-01-20 15:25:00,30.0,12.7,30.09,SE,124,1.0,1.0,48,0.00,,,0.00,Wunderground v.1.15,2013-01-20 20:25:00,
2013-01-20 15:30:00,29.7,11.9,30.09,WSW,258,1.0,6.0,47,0.00,,,0.00,Wunderground v.1.15,2013-01-20 20:30:00,
2013-01-20 15:40:00,29.5,11.7,30.08,West,270,2.0,2.0,47,0.00,,,0.00,Wunderground v.1.15,2013-01-20 20:40:00,
2013-01-20 15:45:00,29.5,12.2,30.08,SW,231,1.0,2.0,48,0.00,,,0.00,Wunderground v.1.15,2013-01-20 20:45:00,
2013-01-20 15:55:00,29.5,11.7,30.08,West,260,1.0,1.0,47,0.00,,,0.00,Wunderground v.1.15,2013-01-20 20:55:00,
2013-01-20 16:00:00,29.1,11.8,30.08,WSW,250,1.0,2.0,48,0.00,,,0.00,Wunderground v.1.15,2013-01-20 21:00:00,
2013-01-20 16:10:00,29.0,11.3,30.09,West,262,1.0,1.0,47,0.00,,,0.00,Wunderground v.1.15,2013-01-20 21:10:00,
2013-01-20 16:15:00,28.8,11.1,30.09,SW,233,2.0,3.0,47,0.00,,,0.00,Wunderground v.1.15,2013-01-20 21:15:00,
2013-01-20 16:25:00,28.4,12.1,30.10,WSW,250,2.0,4.0,50,0.00,,,0.00,Wunderground v.1.15,2013-01-20 21:25:00,
2013-01-20 16:30:00,28.1,11.4,30.10,SW,236,2.0,2.0,49,0.00,,,0.00,Wunderground v.1.15,2013-01-20 21:30:00,
2013-01-20 16:40:00,28.1,11.4,30.10,WSW,257,2.0,2.0,49,0.00,,,0.00,Wunderground v.1.15,2013-01-20 21:40:00,
2013-01-20 16:45:00,27.9,11.2,30.10,WSW,255,1.0,2.0,49,0.00,,,0.00,Wunderground v.1.15,2013-01-20 21:45:00,
2013-01-20 16:55:00,27.6,10.9,30.11,West,274,1.0,2.0,49,0.00,,,0.00,Wunderground v.1.15,2013-01-20 21:55:00,
2013-01-20 17:00:00,27.3,10.2,30.11,SW,221,2.0,2.0,48,0.00,,,0.00,Wunderground v.1.15,2013-01-20 22:00:00,
2013-01-20 17:10:00,27.0,10.8,30.11,WSW,254,1.0,1.0,50,0.00,,,0.00,Wunderground v.1.15,2013-01-20 22:10:00,
2013-01-20 17:15:00,27.0,11.3,30.11,WSW,252,1.0,1.0,51,0.00,,,0.00,Wunderground v.1.15,2013-01-20 22:15:00,
2013-01-20 17:25:00,26.7,11.0,30.11,WSW,253,1.0,2.0,51,0.00,,,0.00,Wunderground v.1.15,2013-01-20 22:25:00,
2013-01-20 17:30:00,26.7,11.0,30.11,WSW,252,1.0,1.0,51,0.00,,,0.00,Wunderground v.1.15,2013-01-20 22:30:00,
2013-01-20 17:40:00,26.4,11.1,30.11,WSW,253,0.0,0.0,52,0.00,,,0.00,Wunderground v.1.15,2013-01-20 22:40:00,
2013-01-20 17:45:00,26.4,12.4,30.11,WSW,253,0.0,1.0,55,0.00,,,0.00,Wunderground v.1.15,2013-01-20 22:45:00,
2013-01-20 17:55:00,26.1,12.1,30.11,North,11,0.0,2.0,55,0.00,,,0.00,Wunderground v.1.15,2013-01-20 22:55:00,
2013-01-20 18:00:00,26.1,12.1,30.11,North,5,0.0,0.0,55,0.00,,,0.00,Wunderground v.1.15,2013-01-20 23:00:00,
2013-01-20 18:10:00,26.0,12.4,30.12,West,260,0.0,0.0,56,0.00,,,0.00,Wunderground v.1.15,2013-01-20 23:10:00,
2013-01-20 18:15:00,25.7,12.6,30.12,West,260,0.0,0.0,57,0.00,,,0.00,Wunderground v.1.15,2013-01-20 23:15:00,
2013-01-20 18:25:00,25.4,12.3,30.13,WSW,250,0.0,0.0,57,0.00,,,0.00,Wunderground v.1.15,2013-01-20 23:25:00,
2013-01-20 18:30:00,25.1,12.4,30.13,WSW,250,0.0,0.0,58,0.00,,,0.00,Wunderground v.1.15,2013-01-20 23:30:00,
2013-01-20 18:40:00,24.8,12.1,30.13,NE,38,0.0,0.0,58,0.00,,,0.00,Wunderground v.1.15,2013-01-20 23:40:00,
2013-01-20 18:45:00,24.7,12.0,30.13,NE,38,0.0,0.0,58,0.00,,,0.00,Wunderground v.1.15,2013-01-20 23:45:00,
2013-01-20 18:55:00,24.4,11.7,30.13,SW,215,0.0,1.0,58,0.00,,,0.00,Wunderground v.1.15,2013-01-20 23:55:00,
2013-01-20 19:00:00,24.4,12.1,30.13,West,260,0.0,2.0,59,0.00,,,0.00,Wunderground v.1.15,2013-01-21 00:00:00,
2013-01-20 19:10:00,24.1,11.8,30.13,West,260,0.0,0.0,59,0.00,,,0.00,Wunderground v.1.15,2013-01-21 00:10:00,
2013-01-20 19:15:00,23.9,11.6,30.13,West,260,0.0,0.0,59,0.00,,,0.00,Wunderground v.1.15,2013-01-21 00:15:00,
2013-01-20 19:25:00,23.6,11.7,30.13,West,260,0.0,0.0,60,0.00,,,0.00,Wunderground v.1.15,2013-01-21 00:25:00,
2013-01-20 19:30:00,23.6,11.4,30.13,West,260,0.0,1.0,59,0.00,,,0.00,Wunderground v.1.15,2013-01-21 00:30:00,
2013-01-20 19:40:00,23.3,11.4,30.13,West,260,0.0,0.0,60,0.00,,,0.00,Wunderground v.1.15,2013-01-21 00:40:00,
2013-01-20 19:45:00,23.2,11.7,30.13,West,260,0.0,0.0,61,0.00,,,0.00,Wunderground v.1.15,2013-01-21 00:45:00,
2013-01-20 19:55:00,22.9,11.8,30.13,West,260,0.0,0.0,62,0.00,,,0.00,Wunderground v.1.15,2013-01-21 00:55:00,
2013-01-20 20:00:00,22.9,11.8,30.13,West,260,0.0,0.0,62,0.00,,,0.00,Wunderground v.1.15,2013-01-21 01:00:00,
2013-01-20 20:10:00,22.7,12.0,30.13,West,260,0.0,0.0,63,0.00,,,0.00,Wunderground v.1.15,2013-01-21 01:10:00,
2013-01-20 20:15:00,22.5,12.1,30.13,West,260,0.0,0.0,64,0.00,,,0.00,Wunderground v.1.15,2013-01-21 01:15:00,
2013-01-20 20:25:00,22.4,12.1,30.13,West,260,0.0,0.0,64,0.00,,,0.00,Wunderground v.1.15,2013-01-21 01:25:00,
2013-01-20 20:30:00,22.2,12.2,30.13,SSE,154,0.0,1.0,65,0.00,,,0.00,Wunderground v.1.15,2013-01-21 01:30:00,
2013-01-20 20:40:00,22.4,12.4,30.13,SSE,154,0.0,0.0,65,0.00,,,0.00,Wunderground v.1.15,2013-01-21 01:40:00,
2013-01-20 20:45:00,22.4,12.4,30.13,SSE,154,0.0,0.0,65,0.00,,,0.00,Wunderground v.1.15,2013-01-21 01:45:00,
2013-01-20 20:55:00,22.5,12.1,30.13,SW,224,0.0,0.0,64,0.00,,,0.00,Wunderground v.1.15,2013-01-21 01:55:00,
2013-01-20 21:00:00,22.7,12.3,30.13,SW,224,0.0,1.0,64,0.00,,,0.00,Wunderground v.1.15,2013-01-21 02:00:00,
2013-01-20 21:10:00,22.7,12.3,30.12,SW,224,0.0,0.0,64,0.00,,,0.00,Wunderground v.1.15,2013-01-21 02:10:00,
2013-01-20 21:15:00,22.7,12.0,30.12,SW,224,0.0,0.0,63,0.00,,,0.00,Wunderground v.1.15,2013-01-21 02:15:00,
2013-01-20 21:25:00,22.9,12.5,30.12,SW,224,0.0,0.0,64,0.00,,,0.00,Wunderground v.1.15,2013-01-21 02:25:00,
2013-01-20 21:30:00,22.9,12.5,30.12,SW,224,0.0,0.0,64,0.00,,,0.00,Wunderground v.1.15,2013-01-21 02:30:00,
2013-01-20 21:40:00,23.0,12.6,30.12,SW,224,0.0,0.0,64,0.00,,,0.00,Wunderground v.1.15,2013-01-21 02:40:00,
2013-01-20 21:45:00,23.0,12.6,30.12,SW,224,0.0,0.0,64,0.00,,,0.00,Wunderground v.1.15,2013-01-21 02:45:00,
2013-01-20 21:55:00,23.0,12.3,30.12,WSW,255,0.0,0.0,63,0.00,,,0.00,Wunderground v.1.15,2013-01-21 02:55:00,
2013-01-20 22:00:00,23.2,12.8,30.12,North,355,0.0,0.0,64,0.00,,,0.00,Wunderground v.1.15,2013-01-21 03:00:00,
2013-01-20 22:10:00,23.2,12.8,30.11,North,355,0.0,0.0,64,0.00,,,0.00,Wunderground v.1.15,2013-01-21 03:10:00,
2013-01-20 22:15:00,23.2,12.1,30.11,West,261,0.0,0.0,62,0.00,,,0.00,Wunderground v.1.15,2013-01-21 03:15:00,
2013-01-20 22:25:00,23.2,12.5,30.12,WSW,243,0.0,0.0,63,0.00,,,0.00,Wunderground v.1.15,2013-01-21 03:25:00,
2013-01-20 22:30:00,23.2,12.1,30.12,WSW,251,0.0,0.0,62,0.00,,,0.00,Wunderground v.1.15,2013-01-21 03:30:00,
2013-01-20 22:40:00,23.2,12.5,30.11,SSE,148,0.0,0.0,63,0.00,,,0.00,Wunderground v.1.15,2013-01-21 03:40:00,
2013-01-20 22:45:00,23.3,12.6,30.11,SSE,148,0.0,1.0,63,0.00,,,0.00,Wunderground v.1.15,2013-01-21 03:45:00,
2013-01-20 22:55:00,23.3,12.2,30.12,West,263,1.0,2.0,62,0.00,,,0.00,Wunderground v.1.15,2013-01-21 03:55:00,
2013-01-20 23:00:00,23.2,12.1,30.12,West,259,0.0,0.0,62,0.00,,,0.00,Wunderground v.1.15,2013-01-21 04:00:00,
2013-01-20 23:10:00,23.2,11.7,30.11,West,259,0.0,0.0,61,0.00,,,0.00,Wunderground v.1.15,2013-01-21 04:10:00,
2013-01-20 23:15:00,23.2,12.1,30.11,West,259,0.0,0.0,62,0.00,,,0.00,Wunderground v.1.15,2013-01-21 04:15:00,
2013-01-20 23:25:00,23.0,12.3,30.11,West,259,0.0,0.0,63,0.00,,,0.00,Wunderground v.1.15,2013-01-21 04:25:00,
2013-01-20 23:30:00,22.9,11.8,30.11,West,261,0.0,0.0,62,0.00,,,0.00,Wunderground v.1.15,2013-01-21 04:30:00,
2013-01-20 23:40:00,22.9,12.2,30.10,WSW,242,0.0,0.0,63,0.00,,,0.00,Wunderground v.1.15,2013-01-21 04:40:00,
2013-01-20 23:45:00,22.9,11.8,30.10,WSW,242,0.0,2.0,62,0.00,,,0.00,Wunderground v.1.15,2013-01-21 04:45:00,
2013-01-20 23:55:00,23.0,11.9,30.11,WSW,242,1.0,1.0,62,0.00,,,0.00,Wunderground v.1.15,2013-01-21 04:55:00,